createdAt,value
2023-05-25T00:02:17.955Z,12.09
2023-05-25T00:04:48.408Z,12.02
2023-05-25T00:07:16.229Z,11.90
2023-05-25T00:09:46.627Z,11.84
2023-05-25T00:12:14.258Z,11.79
2023-05-25T00:14:40.899Z,11.71
2023-05-25T00:17:10.557Z,11.64
2023-05-25T00:19:38.120Z,11.58
2023-05-25T00:22:04.852Z,11.48
2023-05-25T00:24:31.540Z,11.41
2023-05-25T00:26:58.504Z,11.32
2023-05-25T00:29:26.010Z,11.28
2023-05-25T00:31:53.755Z,11.23
2023-05-25T00:34:20.800Z,11.21
2023-05-25T00:36:48.271Z,11.25
2023-05-25T00:39:18.789Z,11.23
2023-05-25T00:41:46.221Z,11.18
2023-05-25T00:44:16.625Z,11.16
2023-05-25T00:46:51.930Z,11.14
2023-05-25T00:49:20.110Z,11.19
2023-05-25T00:51:48.023Z,11.16
2023-05-25T00:54:19.473Z,11.13
2023-05-25T00:56:57.049Z,11.09
2023-05-25T00:59:35.683Z,11.05
2023-05-25T01:02:08.790Z,11.03
2023-05-25T01:04:38.545Z,10.99
2023-05-25T01:07:06.939Z,10.95
2023-05-25T01:09:35.002Z,10.97
2023-05-25T01:12:02.704Z,10.92
2023-05-25T01:14:29.861Z,10.85
2023-05-25T01:16:57.147Z,10.79
2023-05-25T01:19:23.621Z,10.79
2023-05-25T01:22:08.142Z,10.80
2023-05-25T01:24:42.940Z,10.90
2023-05-25T01:27:15.366Z,10.99
2023-05-25T01:29:44.371Z,11.09
2023-05-25T01:32:11.484Z,11.19
2023-05-25T01:34:43.432Z,11.28
2023-05-25T01:37:13.360Z,11.36
2023-05-25T01:39:41.196Z,11.48
2023-05-25T01:42:07.997Z,11.67
2023-05-25T01:44:35.352Z,11.78
2023-05-25T01:47:05.862Z,11.94
2023-05-25T01:49:58.353Z,12.01
2023-05-25T01:52:32.361Z,12.04
2023-05-25T01:55:04.586Z,12.13
2023-05-25T01:57:36.163Z,12.17
2023-05-25T02:00:04.633Z,12.32
2023-05-25T02:02:33.061Z,12.31
2023-05-25T02:04:59.777Z,12.28
2023-05-25T02:07:26.244Z,12.25
2023-05-25T02:09:52.751Z,12.17
2023-05-25T02:12:19.314Z,12.19
2023-05-25T02:14:48.412Z,12.20
2023-05-25T02:17:17.811Z,12.13
2023-05-25T02:19:45.510Z,12.06
2023-05-25T02:22:12.189Z,12.14
2023-05-25T02:24:38.641Z,12.08
2023-05-25T02:27:06.676Z,12.05
2023-05-25T02:29:33.235Z,12.11
2023-05-25T02:31:59.662Z,12.06
2023-05-25T02:34:26.158Z,12.00
2023-05-25T02:36:52.625Z,11.91
2023-05-25T02:39:19.095Z,11.89
2023-05-25T02:41:45.599Z,11.79
2023-05-25T02:44:12.227Z,11.70
2023-05-25T02:46:38.763Z,11.67
2023-05-25T02:49:05.504Z,11.58
2023-05-25T02:51:32.423Z,11.61
2023-05-25T02:53:59.703Z,11.66
2023-05-25T02:56:27.453Z,11.68
2023-05-25T02:58:53.990Z,11.56
2023-05-25T03:01:20.741Z,11.63
2023-05-25T03:03:52.098Z,11.65
2023-05-25T03:06:18.788Z,11.69
2023-05-25T03:08:45.371Z,11.65
2023-05-25T03:11:11.798Z,11.64
2023-05-25T03:13:38.384Z,11.65
2023-05-25T03:16:05.058Z,11.62
2023-05-25T03:18:31.626Z,11.62
2023-05-25T03:20:58.133Z,11.66
2023-05-25T03:23:24.600Z,11.59
2023-05-25T03:25:51.485Z,11.57
2023-05-25T03:28:18.098Z,11.54
2023-05-25T03:30:44.590Z,11.53
2023-05-25T03:33:13.809Z,11.49
2023-05-25T03:35:40.663Z,11.52
2023-05-25T03:38:07.329Z,11.48
2023-05-25T03:40:33.840Z,11.47
2023-05-25T03:43:00.360Z,11.44
2023-05-25T03:45:26.831Z,11.45
2023-05-25T03:47:53.468Z,11.45
2023-05-25T03:50:20.466Z,11.38
2023-05-25T03:52:46.995Z,11.42
2023-05-25T03:55:15.190Z,11.41
2023-05-25T03:57:42.171Z,11.44
2023-05-25T04:00:12.146Z,11.50
2023-05-25T04:02:38.722Z,11.58
2023-05-25T04:05:05.694Z,11.61
2023-05-25T04:07:32.207Z,11.70
2023-05-25T04:09:59.714Z,11.70
2023-05-25T04:12:27.513Z,11.73
2023-05-25T04:14:54.115Z,11.76
2023-05-25T04:17:24.877Z,11.82
2023-05-25T04:19:52.424Z,11.75
2023-05-25T04:22:19.176Z,11.75
2023-05-25T04:24:46.300Z,11.73
2023-05-25T04:27:14.398Z,11.83
2023-05-25T04:29:43.908Z,11.83
2023-05-25T04:32:10.459Z,11.83
2023-05-25T04:34:37.692Z,11.78
2023-05-25T04:37:05.676Z,11.82
2023-05-25T04:39:32.753Z,11.91
2023-05-25T04:41:59.253Z,11.86
2023-05-25T04:44:25.788Z,11.93
2023-05-25T04:46:53.636Z,11.93
2023-05-25T04:49:21.427Z,11.81
2023-05-25T04:51:48.330Z,11.80
2023-05-25T04:54:14.829Z,11.97
2023-05-25T04:56:41.324Z,12.02
2023-05-25T04:59:07.822Z,11.98
2023-05-25T05:01:40.442Z,11.94
2023-05-25T05:04:08.070Z,12.02
2023-05-25T05:06:34.716Z,12.00
2023-05-25T05:09:01.506Z,12.06
2023-05-25T05:11:28.884Z,11.97
2023-05-25T05:13:56.424Z,12.20
2023-05-25T05:16:23.107Z,12.12
2023-05-25T05:18:49.720Z,12.16
2023-05-25T05:21:16.269Z,12.20
2023-05-25T05:23:43.620Z,12.22
2023-05-25T05:26:11.530Z,12.22
2023-05-25T05:28:38.177Z,11.80
2023-05-25T05:31:04.723Z,12.21
2023-05-25T05:33:31.389Z,12.16
2023-05-25T05:35:58.008Z,12.32
2023-05-25T05:38:24.514Z,12.32
2023-05-25T05:40:51.468Z,12.22
2023-05-25T05:43:17.929Z,12.29
2023-05-25T05:45:44.501Z,12.40
2023-05-25T05:48:11.461Z,12.30
2023-05-25T05:50:40.976Z,12.23
2023-05-25T05:53:09.669Z,12.41
2023-05-25T05:55:36.212Z,12.12
2023-05-25T05:58:02.658Z,11.63
2023-05-25T06:00:29.192Z,12.23
2023-05-25T06:02:56.069Z,12.27
2023-05-25T06:05:23.194Z,12.35
2023-05-25T06:07:49.736Z,12.48
2023-05-25T06:10:16.253Z,12.42
2023-05-25T06:12:42.765Z,12.44
2023-05-25T06:15:09.662Z,12.16
2023-05-25T06:17:37.031Z,12.37
2023-05-25T06:20:03.772Z,12.26
2023-05-25T06:22:30.270Z,12.37
2023-05-25T06:24:56.817Z,12.39
2023-05-25T06:27:23.443Z,12.28
2023-05-25T06:29:49.954Z,12.50
2023-05-25T06:32:16.673Z,12.45
2023-05-25T06:34:43.278Z,12.43
2023-05-25T06:37:09.868Z,12.47
2023-05-25T06:39:36.417Z,12.50
2023-05-25T06:42:02.897Z,12.45
2023-05-25T06:44:29.830Z,12.40
2023-05-25T06:46:56.371Z,12.59
2023-05-25T06:49:22.861Z,12.60
2023-05-25T06:51:51.233Z,12.65
2023-05-25T06:54:19.549Z,12.63
2023-05-25T06:56:46.425Z,12.74
2023-05-25T06:59:12.934Z,13.05
2023-05-25T07:01:39.483Z,12.82
2023-05-25T07:04:05.971Z,12.97
2023-05-25T07:06:33.062Z,13.20
2023-05-25T07:08:59.558Z,13.14
2023-05-25T07:11:26.572Z,13.11
2023-05-25T07:13:53.070Z,13.14
2023-05-25T07:16:19.658Z,13.32
2023-05-25T07:18:46.749Z,12.86
2023-05-25T07:21:13.219Z,13.25
2023-05-25T07:23:42.229Z,13.47
2023-05-25T07:26:09.125Z,13.46
2023-05-25T07:28:35.584Z,13.67
2023-05-25T07:31:02.147Z,13.53
2023-05-25T07:33:28.601Z,13.84
2023-05-25T07:35:55.155Z,13.67
2023-05-25T07:38:21.670Z,13.74
2023-05-25T07:40:49.134Z,13.86
2023-05-25T07:43:15.679Z,13.87
2023-05-25T07:45:42.258Z,13.90
2023-05-25T07:48:09.528Z,13.68
2023-05-25T07:50:36.142Z,13.62
2023-05-25T07:53:02.673Z,13.71
2023-05-25T07:55:29.224Z,13.63
2023-05-25T07:57:56.181Z,13.20
2023-05-25T08:00:22.788Z,13.37
2023-05-25T08:02:49.373Z,13.50
2023-05-25T08:05:16.279Z,13.66
2023-05-25T08:07:43.081Z,13.66
2023-05-25T08:10:09.916Z,13.77
2023-05-25T08:12:47.859Z,13.97
2023-05-25T08:15:15.255Z,14.00
2023-05-25T08:17:42.235Z,13.90
2023-05-25T08:20:10.153Z,14.10
2023-05-25T08:22:36.739Z,14.25
2023-05-25T08:25:06.880Z,14.16
2023-05-25T08:27:35.405Z,14.29
2023-05-25T08:30:02.701Z,14.37
2023-05-25T08:32:29.174Z,14.42
2023-05-25T08:34:56.054Z,14.46
2023-05-25T08:37:23.545Z,14.48
2023-05-25T08:39:50.443Z,14.69
2023-05-25T08:42:16.906Z,14.59
2023-05-25T08:44:43.539Z,14.71
2023-05-25T08:47:12.232Z,14.44
2023-05-25T08:49:41.127Z,14.63
2023-05-25T08:52:13.442Z,14.52
2023-05-25T08:54:43.973Z,14.58
2023-05-25T08:57:15.207Z,14.56
2023-05-25T08:59:49.118Z,14.83
2023-05-25T09:02:53.308Z,14.79
2023-05-25T09:05:20.682Z,14.78
2023-05-25T09:07:47.955Z,14.51
2023-05-25T09:10:14.905Z,14.63
2023-05-25T09:12:42.513Z,14.61
2023-05-25T09:15:12.824Z,14.57
2023-05-25T09:17:41.108Z,14.44
2023-05-25T09:20:10.614Z,14.76
2023-05-25T09:22:37.187Z,14.99
2023-05-25T09:25:08.532Z,14.90
2023-05-25T09:27:39.355Z,14.87
2023-05-25T09:30:06.649Z,14.87
2023-05-25T09:32:33.427Z,14.78
2023-05-25T09:35:07.714Z,15.04
2023-05-25T09:37:35.176Z,14.48
2023-05-25T09:40:01.990Z,14.37
2023-05-25T09:42:28.483Z,14.49
2023-05-25T09:44:54.973Z,14.85
2023-05-25T09:47:21.685Z,14.99
2023-05-25T09:49:50.492Z,14.97
2023-05-25T09:52:17.079Z,15.07
2023-05-25T09:54:48.435Z,14.65
2023-05-25T09:57:16.316Z,14.98
2023-05-25T09:59:43.687Z,14.83
2023-05-25T10:02:10.190Z,15.08
2023-05-25T10:04:36.921Z,15.00
2023-05-25T10:07:06.956Z,15.01
2023-05-25T10:09:39.857Z,15.40
2023-05-25T10:12:07.658Z,15.64
2023-05-25T10:14:37.288Z,15.78
2023-05-25T10:17:08.899Z,16.05
2023-05-25T10:19:45.544Z,16.15
2023-05-25T10:22:22.097Z,16.37
2023-05-25T10:25:04.694Z,16.03
2023-05-25T10:27:40.679Z,16.26
2023-05-25T10:30:09.029Z,16.22
2023-05-25T10:32:37.963Z,16.35
2023-05-25T10:35:07.109Z,16.37
2023-05-25T10:37:34.641Z,16.43
2023-05-25T10:40:02.046Z,16.34
2023-05-25T10:42:29.757Z,16.02
2023-05-25T10:44:57.341Z,15.76
2023-05-25T10:47:24.557Z,16.18
2023-05-25T10:49:57.541Z,16.09
2023-05-25T10:52:31.908Z,16.19
2023-05-25T10:55:02.189Z,15.96
2023-05-25T10:57:29.016Z,16.22
2023-05-25T11:00:01.770Z,16.17
2023-05-25T11:02:28.802Z,16.52
2023-05-25T11:05:26.095Z,16.69
2023-05-25T11:07:57.748Z,16.51
2023-05-25T11:10:43.108Z,16.04
2023-05-25T11:13:31.144Z,15.82
2023-05-25T11:16:20.845Z,15.97
2023-05-25T11:18:58.932Z,15.85
2023-05-25T11:21:41.104Z,16.21
2023-05-25T11:24:15.572Z,16.07
2023-05-25T11:27:00.861Z,16.08
2023-05-25T11:29:31.506Z,16.18
2023-05-25T11:31:59.278Z,16.30
2023-05-25T11:34:26.055Z,16.41
2023-05-25T11:37:04.142Z,16.23
2023-05-25T11:39:31.742Z,15.98
2023-05-25T11:42:07.288Z,16.44
2023-05-25T11:44:36.719Z,16.50
2023-05-25T11:47:08.153Z,16.48
2023-05-25T11:49:46.148Z,16.26
2023-05-25T11:52:17.632Z,16.60
2023-05-25T11:54:44.725Z,16.81
2023-05-25T11:57:24.821Z,16.61
2023-05-25T11:59:53.455Z,16.59
2023-05-25T12:02:21.246Z,16.63
2023-05-25T12:04:55.786Z,16.81
2023-05-25T12:07:22.745Z,16.87
2023-05-25T12:09:49.308Z,17.11
2023-05-25T12:12:16.050Z,17.26
2023-05-25T12:14:49.665Z,17.43
2023-05-25T12:17:21.878Z,17.62
2023-05-25T12:19:48.895Z,17.64
2023-05-25T12:22:16.256Z,17.78
2023-05-25T12:24:42.775Z,17.86
2023-05-25T12:27:24.574Z,17.78
2023-05-25T12:29:53.012Z,17.78
2023-05-25T12:32:19.561Z,17.89
2023-05-25T12:34:46.060Z,18.03
2023-05-25T12:37:20.166Z,18.11
2023-05-25T12:39:47.236Z,17.91
2023-05-25T12:42:15.617Z,17.84
2023-05-25T12:44:43.326Z,17.96
2023-05-25T12:47:17.191Z,17.62
2023-05-25T12:49:45.220Z,17.67
2023-05-25T12:52:30.864Z,17.88
2023-05-25T12:54:57.544Z,17.94
2023-05-25T12:57:37.518Z,17.45
2023-05-25T13:00:04.858Z,17.54
2023-05-25T13:02:31.950Z,17.55
2023-05-25T13:04:58.517Z,17.57
2023-05-25T13:07:25.191Z,17.48
2023-05-25T13:09:51.678Z,17.30
2023-05-25T13:12:18.173Z,17.39
2023-05-25T13:14:44.673Z,17.42
2023-05-25T13:17:11.167Z,17.49
2023-05-25T13:19:37.628Z,17.60
2023-05-25T13:22:04.275Z,17.35
2023-05-25T13:24:30.738Z,17.13
2023-05-25T13:26:57.219Z,17.05
2023-05-25T13:29:25.548Z,17.19
2023-05-25T13:31:52.057Z,17.16
2023-05-25T13:34:18.555Z,17.44
2023-05-25T13:36:45.114Z,17.49
2023-05-25T13:39:13.512Z,17.54
2023-05-25T13:41:40.883Z,17.64
2023-05-25T13:44:07.416Z,17.32
2023-05-25T13:46:35.716Z,17.41
2023-05-25T13:49:03.459Z,17.41
2023-05-25T13:51:30.279Z,17.26
2023-05-25T13:53:56.712Z,17.27
2023-05-25T13:56:23.341Z,16.93
2023-05-25T13:58:49.920Z,17.07
2023-05-25T14:01:16.507Z,17.48
2023-05-25T14:03:43.184Z,17.74
2023-05-25T14:06:09.712Z,17.94
2023-05-25T14:08:36.222Z,18.24
2023-05-25T14:11:03.130Z,18.25
2023-05-25T14:13:29.938Z,18.50
2023-05-25T14:15:56.636Z,18.43
2023-05-25T14:18:23.223Z,18.57
2023-05-25T14:23:18.394Z,18.88
2023-05-25T14:25:46.351Z,18.78
2023-05-25T14:28:13.124Z,19.06
2023-05-25T14:30:39.675Z,19.23
2023-05-25T14:33:06.185Z,19.18
2023-05-25T14:35:32.777Z,19.25
2023-05-25T14:37:59.197Z,19.05
2023-05-25T14:40:25.789Z,19.24
2023-05-25T14:42:55.310Z,19.26
2023-05-25T14:45:21.846Z,19.20
2023-05-25T14:47:48.388Z,19.10
2023-05-25T14:50:15.072Z,18.79
2023-05-25T14:52:41.992Z,18.86
2023-05-25T14:55:09.183Z,18.73
2023-05-25T14:57:36.546Z,18.88
2023-05-25T15:00:03.470Z,18.82
2023-05-25T15:02:30.114Z,18.77
2023-05-25T15:04:56.650Z,18.69
2023-05-25T15:07:23.113Z,18.76
2023-05-25T15:09:49.579Z,18.63
2023-05-25T15:12:16.132Z,18.58
2023-05-25T15:14:42.808Z,18.47
2023-05-25T15:17:09.761Z,18.23
2023-05-25T15:19:36.481Z,18.12
2023-05-25T15:22:03.545Z,18.05
2023-05-25T15:24:30.116Z,18.19
2023-05-25T15:26:56.644Z,18.03
2023-05-25T15:29:23.201Z,18.39
2023-05-25T15:31:52.684Z,18.22
2023-05-25T15:34:20.147Z,18.22
2023-05-25T15:36:46.620Z,18.14
2023-05-25T15:39:14.581Z,18.24
2023-05-25T15:41:41.921Z,17.96
2023-05-25T15:44:12.225Z,17.93
2023-05-25T15:46:40.193Z,17.90
2023-05-25T15:49:11.415Z,17.72
2023-05-25T15:51:41.584Z,17.97
2023-05-25T15:54:11.166Z,18.04
2023-05-25T15:56:40.109Z,18.02
2023-05-25T15:59:06.958Z,18.09
2023-05-25T16:01:36.877Z,17.52
2023-05-25T16:04:04.572Z,18.25
2023-05-25T16:06:32.014Z,18.50
2023-05-25T16:08:58.785Z,18.64
2023-05-25T16:11:27.969Z,18.96
2023-05-25T16:13:54.768Z,18.99
2023-05-25T16:16:21.579Z,19.17
2023-05-25T16:18:48.272Z,19.13
2023-05-25T16:21:14.918Z,19.24
2023-05-25T16:23:41.447Z,19.21
2023-05-25T16:26:09.987Z,19.40
2023-05-25T16:28:37.345Z,19.41
2023-05-25T16:31:07.297Z,19.25
2023-05-25T16:33:34.069Z,19.22
2023-05-25T16:36:00.843Z,19.32
2023-05-25T16:38:27.381Z,19.21
2023-05-25T16:40:53.887Z,19.13
2023-05-25T16:43:21.850Z,19.15
2023-05-25T16:45:48.577Z,19.02
2023-05-25T16:48:15.206Z,18.99
2023-05-25T16:50:41.669Z,18.99
2023-05-25T16:53:08.172Z,18.86
2023-05-25T16:55:34.687Z,18.93
2023-05-25T16:58:01.268Z,18.91
2023-05-25T17:00:27.766Z,18.71
2023-05-25T17:02:54.443Z,18.73
2023-05-25T17:05:20.996Z,18.66
2023-05-25T17:07:49.014Z,18.60
2023-05-25T17:10:15.655Z,18.57
2023-05-25T17:12:42.387Z,18.61
2023-05-25T17:15:11.096Z,18.51
2023-05-25T17:17:37.619Z,18.47
2023-05-25T17:20:04.420Z,18.32
2023-05-25T17:22:30.979Z,18.34
2023-05-25T17:24:57.953Z,18.38
2023-05-25T17:27:24.484Z,18.16
2023-05-25T17:29:50.953Z,18.18
2023-05-25T17:32:17.515Z,18.38
2023-05-25T17:34:44.004Z,18.17
2023-05-25T17:37:10.515Z,17.99
2023-05-25T17:39:37.038Z,18.11
2023-05-25T17:42:03.578Z,17.90
2023-05-25T17:44:30.071Z,17.81
2023-05-25T17:46:56.511Z,17.43
2023-05-25T17:49:23.131Z,17.39
2023-05-25T17:51:49.687Z,17.53
2023-05-25T17:54:18.575Z,17.39
2023-05-25T17:56:45.852Z,17.54
2023-05-25T17:59:12.419Z,17.40
2023-05-25T18:01:39.510Z,17.37
2023-05-25T18:04:06.408Z,17.70
2023-05-25T18:06:32.944Z,17.84
2023-05-25T18:08:59.664Z,18.09
2023-05-25T18:11:28.288Z,18.20
2023-05-25T18:13:54.891Z,18.38
2023-05-25T18:16:21.371Z,18.38
2023-05-25T18:18:48.029Z,18.50
2023-05-25T18:21:14.649Z,18.50
2023-05-25T18:23:41.115Z,18.48
2023-05-25T18:26:07.856Z,18.48
2023-05-25T18:28:34.395Z,18.50
2023-05-25T18:31:01.007Z,18.37
2023-05-25T18:33:27.585Z,18.38
2023-05-25T18:35:54.057Z,18.12
2023-05-25T18:38:20.580Z,18.16
2023-05-25T18:40:47.067Z,18.13
2023-05-25T18:43:13.552Z,18.15
2023-05-25T18:45:40.033Z,18.15
2023-05-25T18:48:10.280Z,17.94
2023-05-25T18:50:37.597Z,17.94
2023-05-25T18:53:09.711Z,17.93
2023-05-25T18:55:37.218Z,17.83
2023-05-25T18:58:04.059Z,17.84
2023-05-25T19:00:30.940Z,17.74
2023-05-25T19:02:57.638Z,17.69
2023-05-25T19:05:24.611Z,17.55
2023-05-25T19:07:58.909Z,17.46
2023-05-25T19:10:26.031Z,17.39
2023-05-25T19:12:52.621Z,17.33
2023-05-25T19:15:19.352Z,17.19
2023-05-25T19:17:46.703Z,16.94
2023-05-25T19:20:13.560Z,16.77
2023-05-25T19:22:40.354Z,16.57
2023-05-25T19:25:07.337Z,16.39
2023-05-25T19:27:33.821Z,16.25
2023-05-25T19:30:00.416Z,15.99
2023-05-25T19:32:26.931Z,15.81
2023-05-25T19:34:53.449Z,15.62
2023-05-25T19:37:19.905Z,15.42
2023-05-25T19:39:46.438Z,15.22
2023-05-25T19:42:12.872Z,15.02
2023-05-25T19:44:40.581Z,14.84
2023-05-25T19:47:07.518Z,14.63
2023-05-25T19:49:34.019Z,14.44
2023-05-25T19:52:00.453Z,14.31
2023-05-25T19:54:26.965Z,14.14
2023-05-25T19:56:53.781Z,13.97
2023-05-25T19:59:21.651Z,13.83
2023-05-25T20:01:48.522Z,13.69
2023-05-25T20:04:15.462Z,13.54
2023-05-25T20:06:41.995Z,13.43
2023-05-25T20:09:12.353Z,13.29
2023-05-25T20:11:38.845Z,13.18
2023-05-25T20:14:07.561Z,13.02
2023-05-25T20:16:34.357Z,13.03
2023-05-25T20:19:01.538Z,13.12
2023-05-25T20:21:28.850Z,13.22
2023-05-25T20:23:56.800Z,13.35
2023-05-25T20:26:23.226Z,13.53
2023-05-25T20:28:49.645Z,13.66
2023-05-25T20:31:16.167Z,13.78
2023-05-25T20:33:42.709Z,13.76
2023-05-25T20:36:09.125Z,13.74
2023-05-25T20:38:35.764Z,13.69
2023-05-25T20:41:02.363Z,13.68
2023-05-25T20:43:28.808Z,13.65
2023-05-25T20:45:55.758Z,13.62
2023-05-25T20:48:22.253Z,13.63
2023-05-25T20:50:48.725Z,13.66
2023-05-25T20:53:15.765Z,13.69
2023-05-25T20:55:42.302Z,13.67
2023-05-25T20:58:08.933Z,13.86
2023-05-25T21:00:35.652Z,13.95
2023-05-25T21:03:02.212Z,13.95
2023-05-25T21:05:28.863Z,13.92
2023-05-25T21:07:55.482Z,13.98
2023-05-25T21:10:22.167Z,13.96
2023-05-25T21:12:48.591Z,13.95
2023-05-25T21:15:15.151Z,14.00
2023-05-25T21:17:41.653Z,14.02
2023-05-25T21:20:08.501Z,14.16
2023-05-25T21:22:35.114Z,14.24
2023-05-25T21:25:01.596Z,14.22
2023-05-25T21:27:28.095Z,14.16
2023-05-25T21:29:54.930Z,13.99
2023-05-25T21:32:21.490Z,13.84
2023-05-25T21:34:48.035Z,13.71
2023-05-25T21:37:14.542Z,13.53
2023-05-25T21:39:41.120Z,13.35
2023-05-25T21:42:07.685Z,13.15
2023-05-25T21:44:34.160Z,12.98
2023-05-25T21:47:00.723Z,12.82
2023-05-25T21:49:27.175Z,12.65
2023-05-25T21:51:53.639Z,12.49
2023-05-25T21:54:20.241Z,12.35
2023-05-25T21:56:46.699Z,12.24
2023-05-25T21:59:13.171Z,12.14
2023-05-25T22:01:39.688Z,12.04
2023-05-25T22:04:06.385Z,11.94
2023-05-25T22:06:32.884Z,11.83
2023-05-25T22:08:59.588Z,11.75
2023-05-25T22:11:26.399Z,11.65
2023-05-25T22:13:52.952Z,11.55
2023-05-25T22:16:19.975Z,11.46
2023-05-25T22:18:46.450Z,11.35
2023-05-25T22:21:14.687Z,11.28
2023-05-25T22:23:41.333Z,11.18
2023-05-25T22:26:07.897Z,11.05
2023-05-25T22:28:34.382Z,10.95
2023-05-25T22:31:00.834Z,10.88
2023-05-25T22:33:27.319Z,10.82
2023-05-25T22:35:53.808Z,10.74
2023-05-25T22:38:20.387Z,10.71
2023-05-25T22:40:47.633Z,10.68
2023-05-25T22:43:14.760Z,10.61
2023-05-25T22:45:41.566Z,10.57
2023-05-25T22:48:08.860Z,10.49
2023-05-25T22:50:35.398Z,10.45
2023-05-25T22:53:01.831Z,10.42
2023-05-25T22:55:28.286Z,10.40
2023-05-25T22:57:54.754Z,10.30
2023-05-25T23:00:21.409Z,10.25
2023-05-25T23:02:47.920Z,10.20
2023-05-25T23:05:14.510Z,10.13
2023-05-25T23:07:41.369Z,10.07
2023-05-25T23:10:08.335Z,10.02
2023-05-25T23:12:34.817Z,9.96
2023-05-25T23:15:02.609Z,9.93
2023-05-25T23:17:29.131Z,9.89
2023-05-25T23:19:55.759Z,9.83
2023-05-25T23:22:22.228Z,9.80
2023-05-25T23:24:48.699Z,9.74
2023-05-25T23:27:15.165Z,9.69
2023-05-25T23:29:41.608Z,9.65
2023-05-25T23:32:08.144Z,9.60
2023-05-25T23:34:34.710Z,9.57
2023-05-25T23:37:01.385Z,9.50
2023-05-25T23:39:27.828Z,9.48
2023-05-25T23:41:54.301Z,9.44
2023-05-25T23:44:20.772Z,9.41
2023-05-25T23:46:47.240Z,9.45
2023-05-25T23:49:13.700Z,9.41
2023-05-25T23:51:40.134Z,9.41
2023-05-25T23:54:06.825Z,9.38
2023-05-25T23:56:33.260Z,9.37
2023-05-25T23:58:59.751Z,9.35
